KJFK/JFK METAR and TAF weather

Enter ICAO airport designator
Station Type Date Time Source
KJFK METAR 2022/05/26 05:51 UTC NOAA

KJFK 260551Z 09004KT 10SM FEW130 BKN250 11/08 A3035 RMK AO2 SLP276 T01110083 10133 20111 58012


Station Type Date Time Source
KJFK Decoded METAR 2022/05/26 05:51 UTC NOAA

KENNEDY INTERNATIONAL AIRPORT , NY, United States (KJFK) 40-38N 073-46W 9M
May 26, 2022 - 01:51 AM EDT / 2022.05.26 0551 UTC
Wind: from the E (090 degrees) at 5 MPH (4 KT):0
Visibility: 10 mile(s):0
Sky conditions: mostly cloudy
Temperature: 52.0 F (11.1 C)
Dew Point: 46.9 F (8.3 C)
Relative Humidity: 82%
Pressure (altimeter): 30.35 in. Hg (1027 hPa)
Pressure tendency: 0.04 inches (1.2 hPa) lower than three hours ago
ob: KJFK 260551Z 09004KT 10SM FEW130 BKN250 11/08 A3035 RMK AO2 SLP276 T01110083 10133 20111 58012
cycle: 6

Station Type Date Time Source
KJFK TAF 2022/05/26 06:34 UTC NOAA

TAF KJFK 260530Z 2606/2712 11005KT P6SM SCT070 SCT150
FM261400 15012KT P6SM BKN050
FM270000 17009KT P6SM SCT007 BKN025
FM270600 19008KT 3SM BR OVC007
FM270900 18009KT 1SM -DZ BR OVC004

Example: see airport list